AAL1278 KDCA-KBOS
Flight info
| Callsign | AAL1278 |
|---|---|
| Flight time | N/A |
| Altitude | 27000 |
| Route | KDCA/19 SOOKI6 SWANN DCT BROSS Q419 JFK ROBUC3 KBOS/22L |
| Aircraft | B738/M-VGDW/C |
Departure
| Time | 2026-05-06 01:41 |
|---|---|
| Airport | Ronald Reagan Washington National Airport (KDCA) |
Arrival
| Time | N/A |
|---|---|
| Airport | Boston Logan International Airport (KBOS) |
| Time | Latitude | Longitude | Altitude | Speed | Heading |
|---|---|---|---|---|---|
| 2026-05-06 01:04 | 38.85573 | -77.04168 | 23 ft | 0 kts | 334° |
| 2026-05-06 01:28 | 38.85569 | -77.04166 | 26 ft | 2 kts | 336° |
| 2026-05-06 01:28 | 38.85551 | -77.04158 | 27 ft | 3 kts | 353° |
| 2026-05-06 01:28 | 38.85532 | -77.04159 | 26 ft | 3 kts | 22° |
| 2026-05-06 01:28 | 38.85518 | -77.04171 | 28 ft | 3 kts | 63° |
| 2026-05-06 01:29 | 38.85514 | -77.04182 | 26 ft | 1 kts | 71° |
| 2026-05-06 01:29 | 38.85514 | -77.04184 | 26 ft | 0 kts | 71° |
| 2026-05-06 01:32 | 38.85515 | -77.04178 | 26 ft | 1 kts | 71° |
| 2026-05-06 01:32 | 38.85524 | -77.04142 | 26 ft | 6 kts | 73° |
| 2026-05-06 01:32 | 38.85535 | -77.04096 | 25 ft | 1 kts | 72° |
| 2026-05-06 01:32 | 38.85542 | -77.04068 | 26 ft | 6 kts | 72° |
| 2026-05-06 01:33 | 38.85558 | -77.04001 | 25 ft | 10 kts | 75° |
| 2026-05-06 01:33 | 38.85612 | -77.03962 | 26 ft | 9 kts | 355° |
| 2026-05-06 01:33 | 38.85681 | -77.03969 | 26 ft | 11 kts | 356° |
| 2026-05-06 01:33 | 38.85764 | -77.03977 | 26 ft | 12 kts | 356° |
| 2026-05-06 01:34 | 38.85846 | -77.03985 | 28 ft | 9 kts | 355° |
| 2026-05-06 01:34 | 38.85904 | -77.03990 | 27 ft | 8 kts | 4° |
| 2026-05-06 01:34 | 38.85959 | -77.03972 | 24 ft | 8 kts | 16° |
| 2026-05-06 01:34 | 38.85991 | -77.03960 | 25 ft | 0 kts | 16° |
| 2026-05-06 01:39 | 38.86004 | -77.03955 | 27 ft | 5 kts | 15° |
| 2026-05-06 01:39 | 38.86053 | -77.03937 | 23 ft | 9 kts | 16° |
| 2026-05-06 01:40 | 38.86074 | -77.03878 | 22 ft | 8 kts | 143° |
| 2026-05-06 01:40 | 38.86021 | -77.03864 | 23 ft | 7 kts | 174° |
| 2026-05-06 01:40 | 38.85855 | -77.03847 | 26 ft | 56 kts | 175° |
| 2026-05-06 01:40 | 38.85236 | -77.03784 | 23 ft | 121 kts | 175° |
| 2026-05-06 01:41 | 38.84229 | -77.03680 | 171 ft | 160 kts | 177° |
| 2026-05-06 01:41 | 38.83062 | -77.03568 | 782 ft | 169 kts | 175° |
| 2026-05-06 01:41 | 38.81979 | -77.03286 | 1876 ft | 147 kts | 177° |
| 2026-05-06 01:41 | 38.80945 | -77.03053 | 2476 ft | 160 kts | 179° |
| 2026-05-06 01:42 | 38.79748 | -77.02826 | 2809 ft | 182 kts | 179° |
| 2026-05-06 01:42 | 38.78451 | -77.02562 | 3139 ft | 200 kts | 178° |
| 2026-05-06 01:42 | 38.77047 | -77.02136 | 3493 ft | 220 kts | 165° |
| 2026-05-06 01:42 | 38.75745 | -77.00874 | 4012 ft | 251 kts | 135° |
| 2026-05-06 01:43 | 38.74985 | -76.98728 | 4508 ft | 285 kts | 105° |
| 2026-05-06 01:43 | 38.75013 | -76.96101 | 5144 ft | 302 kts | 87° |
| 2026-05-06 01:43 | 38.75462 | -76.93444 | 5962 ft | 307 kts | 73° |
| 2026-05-06 01:43 | 38.76474 | -76.91021 | 6765 ft | 311 kts | 51° |
| 2026-05-06 01:44 | 38.78112 | -76.89227 | 7488 ft | 312 kts | 27° |
| 2026-05-06 01:44 | 38.80056 | -76.87985 | 8278 ft | 311 kts | 26° |
| 2026-05-06 01:44 | 38.81891 | -76.86595 | 9200 ft | 306 kts | 29° |
| 2026-05-06 01:44 | 38.83704 | -76.85152 | 9978 ft | 308 kts | 29° |
| 2026-05-06 01:45 | 38.85568 | -76.83671 | 10384 ft | 323 kts | 29° |
| 2026-05-06 01:45 | 38.87475 | -76.81968 | 10531 ft | 347 kts | 37° |
| 2026-05-06 01:45 | 38.89350 | -76.79848 | 10703 ft | 368 kts | 41° |
| 2026-05-06 01:45 | 38.91264 | -76.77536 | 10929 ft | 385 kts | 41° |
| 2026-05-06 01:46 | 38.93230 | -76.75157 | 11480 ft | 391 kts | 41° |
| 2026-05-06 01:46 | 38.95208 | -76.72804 | 12127 ft | 393 kts | 41° |
| 2026-05-06 01:46 | 38.97244 | -76.70423 | 12769 ft | 397 kts | 40° |
| 2026-05-06 01:46 | 38.99302 | -76.68035 | 13401 ft | 401 kts | 40° |
| 2026-05-06 01:47 | 39.01385 | -76.65616 | 14013 ft | 405 kts | 41° |
| 2026-05-06 01:47 | 39.03429 | -76.63076 | 14592 ft | 410 kts | 43° |
| 2026-05-06 01:47 | 39.05450 | -76.60449 | 15173 ft | 415 kts | 44° |
| 2026-05-06 01:47 | 39.07499 | -76.57790 | 15688 ft | 420 kts | 44° |
| 2026-05-06 01:48 | 39.09577 | -76.55117 | 16288 ft | 424 kts | 44° |
| 2026-05-06 01:48 | 39.11361 | -76.52128 | 16814 ft | 431 kts | 62° |
| 2026-05-06 01:48 | 39.12376 | -76.48494 | 17379 ft | 433 kts | 81° |
| 2026-05-06 01:48 | 39.12821 | -76.44649 | 17997 ft | 435 kts | 85° |
| 2026-05-06 01:49 | 39.13202 | -76.40761 | 18509 ft | 440 kts | 85° |
| 2026-05-06 01:49 | 39.13589 | -76.36828 | 18948 ft | 443 kts | 84° |